sensor_id;sensor_type;location;lat;lon;timestamp;P1;durP1;ratioP1;P2;durP2;ratioP2
43042;SDS011;28667;50.758;6.096;2023-01-10T00:01:21;4.35;;;1.63;;
43042;SDS011;28667;50.758;6.096;2023-01-10T00:03:47;4.65;;;2.35;;
43042;SDS011;28667;50.758;6.096;2023-01-10T00:06:13;1.75;;;1.30;;
43042;SDS011;28667;50.758;6.096;2023-01-10T00:08:38;2.72;;;1.48;;
43042;SDS011;28667;50.758;6.096;2023-01-10T00:11:04;6.60;;;2.70;;
43042;SDS011;28667;50.758;6.096;2023-01-10T00:16:19;9.75;;;1.70;;
43042;SDS011;28667;50.758;6.096;2023-01-10T00:18:45;7.63;;;1.50;;
43042;SDS011;28667;50.758;6.096;2023-01-10T00:21:11;2.08;;;1.30;;
43042;SDS011;28667;50.758;6.096;2023-01-10T00:23:38;3.90;;;1.60;;
43042;SDS011;28667;50.758;6.096;2023-01-10T00:26:04;9.05;;;2.13;;
43042;SDS011;28667;50.758;6.096;2023-01-10T00:28:30;5.80;;;1.35;;
43042;SDS011;28667;50.758;6.096;2023-01-10T00:30:58;6.75;;;1.52;;
43042;SDS011;28667;50.758;6.096;2023-01-10T00:33:26;9.63;;;1.70;;
43042;SDS011;28667;50.758;6.096;2023-01-10T00:35:52;9.85;;;2.03;;
43042;SDS011;28667;50.758;6.096;2023-01-10T00:38:18;11.32;;;1.38;;
43042;SDS011;28667;50.758;6.096;2023-01-10T00:40:44;6.35;;;1.40;;
43042;SDS011;28667;50.758;6.096;2023-01-10T00:43:10;4.38;;;1.52;;
43042;SDS011;28667;50.758;6.096;2023-01-10T00:45:56;7.97;;;1.38;;
43042;SDS011;28667;50.758;6.096;2023-01-10T00:48:22;7.80;;;1.30;;
43042;SDS011;28667;50.758;6.096;2023-01-10T00:50:48;3.63;;;1.27;;
43042;SDS011;28667;50.758;6.096;2023-01-10T00:53:14;15.52;;;1.40;;
43042;SDS011;28667;50.758;6.096;2023-01-10T00:55:40;7.22;;;1.10;;
43042;SDS011;28667;50.758;6.096;2023-01-10T00:58:06;4.93;;;1.25;;
43042;SDS011;28667;50.758;6.096;2023-01-10T01:00:35;6.22;;;1.23;;
43042;SDS011;28667;50.758;6.096;2023-01-10T01:03:02;5.47;;;1.42;;
43042;SDS011;28667;50.758;6.096;2023-01-10T01:05:29;5.00;;;1.20;;
43042;SDS011;28667;50.758;6.096;2023-01-10T01:07:54;3.53;;;1.30;;
43042;SDS011;28667;50.758;6.096;2023-01-10T01:10:20;4.45;;;0.90;;
43042;SDS011;28667;50.758;6.096;2023-01-10T01:12:52;4.65;;;1.35;;
43042;SDS011;28667;50.758;6.096;2023-01-10T01:15:23;2.72;;;1.17;;
43042;SDS011;28667;50.758;6.096;2023-01-10T01:17:49;5.20;;;1.63;;
43042;SDS011;28667;50.758;6.096;2023-01-10T01:20:15;4.78;;;1.00;;
43042;SDS011;28667;50.758;6.096;2023-01-10T01:22:41;7.25;;;2.15;;
43042;SDS011;28667;50.758;6.096;2023-01-10T01:25:07;4.05;;;1.48;;
43042;SDS011;28667;50.758;6.096;2023-01-10T01:27:33;7.78;;;1.40;;
43042;SDS011;28667;50.758;6.096;2023-01-10T01:29:59;3.70;;;1.40;;
43042;SDS011;28667;50.758;6.096;2023-01-10T01:32:25;6.00;;;1.77;;
43042;SDS011;28667;50.758;6.096;2023-01-10T01:34:51;14.90;;;1.58;;
43042;SDS011;28667;50.758;6.096;2023-01-10T01:37:17;5.65;;;1.48;;
43042;SDS011;28667;50.758;6.096;2023-01-10T01:39:46;12.18;;;1.58;;
43042;SDS011;28667;50.758;6.096;2023-01-10T01:42:25;3.45;;;1.30;;
43042;SDS011;28667;50.758;6.096;2023-01-10T01:47:40;4.15;;;1.33;;
43042;SDS011;28667;50.758;6.096;2023-01-10T01:50:15;4.18;;;1.80;;
43042;SDS011;28667;50.758;6.096;2023-01-10T01:52:43;4.57;;;1.63;;
43042;SDS011;28667;50.758;6.096;2023-01-10T01:55:10;6.20;;;1.77;;
43042;SDS011;28667;50.758;6.096;2023-01-10T01:57:35;4.13;;;1.15;;
43042;SDS011;28667;50.758;6.096;2023-01-10T02:00:03;7.13;;;2.38;;
43042;SDS011;28667;50.758;6.096;2023-01-10T02:02:37;5.72;;;1.10;;
43042;SDS011;28667;50.758;6.096;2023-01-10T02:05:10;3.65;;;1.35;;
43042;SDS011;28667;50.758;6.096;2023-01-10T02:07:39;2.33;;;1.38;;
43042;SDS011;28667;50.758;6.096;2023-01-10T02:10:14;4.00;;;1.40;;
43042;SDS011;28667;50.758;6.096;2023-01-10T02:12:52;11.25;;;2.05;;
43042;SDS011;28667;50.758;6.096;2023-01-10T02:15:21;5.53;;;1.45;;
43042;SDS011;28667;50.758;6.096;2023-01-10T02:17:47;7.57;;;1.85;;
43042;SDS011;28667;50.758;6.096;2023-01-10T02:20:15;14.18;;;1.55;;
43042;SDS011;28667;50.758;6.096;2023-01-10T02:44:18;12.80;;;1.85;;
43042;SDS011;28667;50.758;6.096;2023-01-10T02:46:55;10.38;;;2.00;;
43042;SDS011;28667;50.758;6.096;2023-01-10T02:49:21;6.10;;;1.52;;
43042;SDS011;28667;50.758;6.096;2023-01-10T02:51:47;8.07;;;1.05;;
43042;SDS011;28667;50.758;6.096;2023-01-10T02:54:20;10.50;;;1.85;;
43042;SDS011;28667;50.758;6.096;2023-01-10T02:59:39;8.10;;;1.45;;
43042;SDS011;28667;50.758;6.096;2023-01-10T03:04:58;6.70;;;1.20;;
43042;SDS011;28667;50.758;6.096;2023-01-10T03:07:31;13.63;;;1.30;;
43042;SDS011;28667;50.758;6.096;2023-01-10T03:14:57;5.90;;;0.88;;
43042;SDS011;28667;50.758;6.096;2023-01-10T03:17:24;3.45;;;1.08;;
43042;SDS011;28667;50.758;6.096;2023-01-10T03:19:53;5.32;;;1.63;;
43042;SDS011;28667;50.758;6.096;2023-01-10T03:22:26;15.52;;;1.58;;
43042;SDS011;28667;50.758;6.096;2023-01-10T03:24:55;3.35;;;1.00;;
43042;SDS011;28667;50.758;6.096;2023-01-10T03:27:37;4.40;;;0.85;;
43042;SDS011;28667;50.758;6.096;2023-01-10T03:32:48;7.57;;;0.93;;
43042;SDS011;28667;50.758;6.096;2023-01-10T03:35:14;11.43;;;1.38;;
43042;SDS011;28667;50.758;6.096;2023-01-10T03:37:57;7.00;;;1.98;;
43042;SDS011;28667;50.758;6.096;2023-01-10T03:40:34;7.07;;;1.38;;
43042;SDS011;28667;50.758;6.096;2023-01-10T03:43:19;11.93;;;1.27;;
43042;SDS011;28667;50.758;6.096;2023-01-10T03:46:22;2.33;;;1.38;;
43042;SDS011;28667;50.758;6.096;2023-01-10T03:48:54;4.72;;;1.38;;
43042;SDS011;28667;50.758;6.096;2023-01-10T03:51:22;5.05;;;1.48;;
43042;SDS011;28667;50.758;6.096;2023-01-10T03:53:50;4.50;;;1.23;;
43042;SDS011;28667;50.758;6.096;2023-01-10T03:56:15;9.70;;;1.98;;
43042;SDS011;28667;50.758;6.096;2023-01-10T03:58:41;6.70;;;1.25;;
43042;SDS011;28667;50.758;6.096;2023-01-10T04:01:07;5.90;;;1.00;;
43042;SDS011;28667;50.758;6.096;2023-01-10T04:03:32;3.15;;;1.42;;
43042;SDS011;28667;50.758;6.096;2023-01-10T04:05:58;3.78;;;1.20;;
43042;SDS011;28667;50.758;6.096;2023-01-10T04:08:24;6.03;;;1.02;;
43042;SDS011;28667;50.758;6.096;2023-01-10T04:10:49;5.40;;;0.93;;
43042;SDS011;28667;50.758;6.096;2023-01-10T04:13:15;9.18;;;0.80;;
43042;SDS011;28667;50.758;6.096;2023-01-10T04:15:41;9.20;;;1.20;;
43042;SDS011;28667;50.758;6.096;2023-01-10T04:18:07;1.23;;;0.77;;
43042;SDS011;28667;50.758;6.096;2023-01-10T04:20:32;8.95;;;1.80;;
43042;SDS011;28667;50.758;6.096;2023-01-10T04:22:58;3.92;;;1.38;;
43042;SDS011;28667;50.758;6.096;2023-01-10T04:25:24;8.70;;;1.48;;
43042;SDS011;28667;50.758;6.096;2023-01-10T04:27:49;7.13;;;1.70;;
43042;SDS011;28667;50.758;6.096;2023-01-10T04:30:16;2.33;;;0.95;;
43042;SDS011;28667;50.758;6.096;2023-01-10T04:32:42;12.38;;;1.58;;
43042;SDS011;28667;50.758;6.096;2023-01-10T04:35:08;2.95;;;0.95;;
43042;SDS011;28667;50.758;6.096;2023-01-10T04:37:34;9.00;;;1.75;;
43042;SDS011;28667;50.758;6.096;2023-01-10T04:40:00;4.88;;;1.38;;
43042;SDS011;28667;50.758;6.096;2023-01-10T04:42:26;2.28;;;1.10;;
43042;SDS011;28667;50.758;6.096;2023-01-10T04:44:51;4.75;;;1.30;;
43042;SDS011;28667;50.758;6.096;2023-01-10T04:47:17;10.20;;;1.83;;
43042;SDS011;28667;50.758;6.096;2023-01-10T04:49:43;3.03;;;0.75;;
43042;SDS011;28667;50.758;6.096;2023-01-10T04:52:09;5.88;;;1.17;;
43042;SDS011;28667;50.758;6.096;2023-01-10T04:54:35;10.48;;;1.65;;
43042;SDS011;28667;50.758;6.096;2023-01-10T04:57:01;1.80;;;1.02;;
43042;SDS011;28667;50.758;6.096;2023-01-10T04:59:26;1.33;;;0.98;;
43042;SDS011;28667;50.758;6.096;2023-01-10T05:01:52;7.60;;;1.67;;
43042;SDS011;28667;50.758;6.096;2023-01-10T05:04:18;4.05;;;1.58;;
43042;SDS011;28667;50.758;6.096;2023-01-10T05:06:43;4.47;;;0.95;;
43042;SDS011;28667;50.758;6.096;2023-01-10T05:09:09;5.78;;;1.50;;
43042;SDS011;28667;50.758;6.096;2023-01-10T05:11:35;5.72;;;1.40;;
43042;SDS011;28667;50.758;6.096;2023-01-10T05:14:00;4.45;;;1.50;;
43042;SDS011;28667;50.758;6.096;2023-01-10T05:16:27;8.68;;;1.83;;
43042;SDS011;28667;50.758;6.096;2023-01-10T05:18:53;2.45;;;1.13;;
43042;SDS011;28667;50.758;6.096;2023-01-10T05:21:18;3.90;;;1.55;;
43042;SDS011;28667;50.758;6.096;2023-01-10T05:23:44;2.67;;;1.08;;
43042;SDS011;28667;50.758;6.096;2023-01-10T05:26:12;2.47;;;1.17;;
43042;SDS011;28667;50.758;6.096;2023-01-10T05:28:39;3.90;;;1.67;;
43042;SDS011;28667;50.758;6.096;2023-01-10T05:31:05;8.20;;;1.75;;
43042;SDS011;28667;50.758;6.096;2023-01-10T05:33:32;11.00;;;1.58;;
43042;SDS011;28667;50.758;6.096;2023-01-10T05:36:02;9.82;;;1.10;;
43042;SDS011;28667;50.758;6.096;2023-01-10T05:38:29;5.00;;;1.73;;
43042;SDS011;28667;50.758;6.096;2023-01-10T05:40:56;10.57;;;1.35;;
43042;SDS011;28667;50.758;6.096;2023-01-10T05:43:24;7.10;;;1.23;;
43042;SDS011;28667;50.758;6.096;2023-01-10T05:45:50;4.13;;;1.10;;
43042;SDS011;28667;50.758;6.096;2023-01-10T05:48:16;3.00;;;1.20;;
43042;SDS011;28667;50.758;6.096;2023-01-10T05:50:42;12.05;;;1.63;;
43042;SDS011;28667;50.758;6.096;2023-01-10T05:53:08;6.32;;;2.33;;
43042;SDS011;28667;50.758;6.096;2023-01-10T05:55:34;11.25;;;1.88;;
43042;SDS011;28667;50.758;6.096;2023-01-10T05:58:00;2.13;;;1.48;;
43042;SDS011;28667;50.758;6.096;2023-01-10T06:00:26;4.38;;;1.42;;
43042;SDS011;28667;50.758;6.096;2023-01-10T06:02:55;5.13;;;1.05;;
43042;SDS011;28667;50.758;6.096;2023-01-10T06:05:21;5.20;;;1.80;;
43042;SDS011;28667;50.758;6.096;2023-01-10T06:07:48;9.13;;;1.80;;
43042;SDS011;28667;50.758;6.096;2023-01-10T06:10:14;5.10;;;1.15;;
43042;SDS011;28667;50.758;6.096;2023-01-10T06:12:40;10.82;;;1.20;;
43042;SDS011;28667;50.758;6.096;2023-01-10T06:15:06;7.70;;;1.38;;
43042;SDS011;28667;50.758;6.096;2023-01-10T06:17:32;8.07;;;1.33;;
43042;SDS011;28667;50.758;6.096;2023-01-10T06:19:58;10.15;;;2.05;;
43042;SDS011;28667;50.758;6.096;2023-01-10T06:22:24;7.53;;;1.58;;
43042;SDS011;28667;50.758;6.096;2023-01-10T06:24:50;8.48;;;1.13;;
43042;SDS011;28667;50.758;6.096;2023-01-10T06:27:16;14.38;;;1.48;;
43042;SDS011;28667;50.758;6.096;2023-01-10T06:29:42;8.80;;;1.58;;
43042;SDS011;28667;50.758;6.096;2023-01-10T06:32:07;7.10;;;1.48;;
43042;SDS011;28667;50.758;6.096;2023-01-10T06:34:33;9.55;;;1.75;;
43042;SDS011;28667;50.758;6.096;2023-01-10T06:36:59;6.07;;;0.98;;
43042;SDS011;28667;50.758;6.096;2023-01-10T06:39:25;5.30;;;1.58;;
43042;SDS011;28667;50.758;6.096;2023-01-10T06:41:50;10.75;;;1.52;;
43042;SDS011;28667;50.758;6.096;2023-01-10T06:44:16;6.65;;;1.48;;
43042;SDS011;28667;50.758;6.096;2023-01-10T06:46:42;5.35;;;1.15;;
43042;SDS011;28667;50.758;6.096;2023-01-10T06:49:07;5.68;;;1.20;;
43042;SDS011;28667;50.758;6.096;2023-01-10T06:51:33;5.05;;;1.33;;
43042;SDS011;28667;50.758;6.096;2023-01-10T06:53:59;4.10;;;1.15;;
43042;SDS011;28667;50.758;6.096;2023-01-10T06:56:24;4.50;;;1.17;;
43042;SDS011;28667;50.758;6.096;2023-01-10T06:58:50;14.55;;;1.52;;
43042;SDS011;28667;50.758;6.096;2023-01-10T07:01:17;3.72;;;0.95;;
43042;SDS011;28667;50.758;6.096;2023-01-10T07:03:44;8.52;;;1.08;;
43042;SDS011;28667;50.758;6.096;2023-01-10T07:06:10;11.50;;;1.35;;
43042;SDS011;28667;50.758;6.096;2023-01-10T07:08:37;6.00;;;1.30;;
43042;SDS011;28667;50.758;6.096;2023-01-10T07:11:04;11.85;;;1.77;;
43042;SDS011;28667;50.758;6.096;2023-01-10T07:13:30;5.25;;;1.33;;
43042;SDS011;28667;50.758;6.096;2023-01-10T07:16:00;8.10;;;1.52;;
43042;SDS011;28667;50.758;6.096;2023-01-10T07:18:34;14.55;;;1.85;;
43042;SDS011;28667;50.758;6.096;2023-01-10T07:21:01;8.50;;;1.30;;
43042;SDS011;28667;50.758;6.096;2023-01-10T07:23:26;8.43;;;1.25;;
43042;SDS011;28667;50.758;6.096;2023-01-10T07:25:54;9.20;;;1.90;;
43042;SDS011;28667;50.758;6.096;2023-01-10T07:28:20;14.55;;;1.73;;
43042;SDS011;28667;50.758;6.096;2023-01-10T07:30:45;6.32;;;0.98;;
43042;SDS011;28667;50.758;6.096;2023-01-10T07:33:11;9.35;;;1.75;;
43042;SDS011;28667;50.758;6.096;2023-01-10T07:35:37;9.52;;;1.50;;
43042;SDS011;28667;50.758;6.096;2023-01-10T07:38:03;8.55;;;1.67;;
43042;SDS011;28667;50.758;6.096;2023-01-10T07:40:29;8.00;;;1.92;;
43042;SDS011;28667;50.758;6.096;2023-01-10T07:42:56;1.95;;;1.05;;
43042;SDS011;28667;50.758;6.096;2023-01-10T07:45:25;3.92;;;1.35;;
43042;SDS011;28667;50.758;6.096;2023-01-10T07:48:09;16.08;;;1.90;;
43042;SDS011;28667;50.758;6.096;2023-01-10T07:50:35;8.02;;;1.80;;
43042;SDS011;28667;50.758;6.096;2023-01-10T07:53:02;9.20;;;1.45;;
43042;SDS011;28667;50.758;6.096;2023-01-10T07:55:30;12.65;;;1.67;;
43042;SDS011;28667;50.758;6.096;2023-01-10T07:57:58;18.20;;;1.83;;
43042;SDS011;28667;50.758;6.096;2023-01-10T08:00:24;4.65;;;1.40;;
43042;SDS011;28667;50.758;6.096;2023-01-10T08:02:53;10.32;;;1.30;;
43042;SDS011;28667;50.758;6.096;2023-01-10T08:05:20;10.48;;;1.67;;
43042;SDS011;28667;50.758;6.096;2023-01-10T08:07:46;9.70;;;1.63;;
43042;SDS011;28667;50.758;6.096;2023-01-10T08:10:12;9.27;;;1.60;;
43042;SDS011;28667;50.758;6.096;2023-01-10T08:12:38;4.85;;;1.83;;
43042;SDS011;28667;50.758;6.096;2023-01-10T08:15:04;5.32;;;2.03;;
43042;SDS011;28667;50.758;6.096;2023-01-10T08:17:33;8.40;;;1.10;;
43042;SDS011;28667;50.758;6.096;2023-01-10T08:19:59;8.55;;;1.10;;
43042;SDS011;28667;50.758;6.096;2023-01-10T08:22:25;15.82;;;2.13;;
43042;SDS011;28667;50.758;6.096;2023-01-10T08:24:51;8.02;;;2.17;;
43042;SDS011;28667;50.758;6.096;2023-01-10T08:27:17;7.93;;;1.48;;
43042;SDS011;28667;50.758;6.096;2023-01-10T08:29:43;9.80;;;1.70;;
43042;SDS011;28667;50.758;6.096;2023-01-10T08:32:09;7.28;;;1.48;;
43042;SDS011;28667;50.758;6.096;2023-01-10T08:34:34;6.70;;;1.30;;
43042;SDS011;28667;50.758;6.096;2023-01-10T08:37:00;12.75;;;1.55;;
43042;SDS011;28667;50.758;6.096;2023-01-10T08:39:27;8.38;;;1.50;;
43042;SDS011;28667;50.758;6.096;2023-01-10T08:41:54;6.63;;;1.48;;
43042;SDS011;28667;50.758;6.096;2023-01-10T08:44:20;16.40;;;1.98;;
43042;SDS011;28667;50.758;6.096;2023-01-10T08:46:46;10.32;;;1.25;;
43042;SDS011;28667;50.758;6.096;2023-01-10T08:49:12;4.07;;;1.40;;
43042;SDS011;28667;50.758;6.096;2023-01-10T08:51:38;1.83;;;0.82;;
43042;SDS011;28667;50.758;6.096;2023-01-10T08:54:04;8.02;;;1.75;;
43042;SDS011;28667;50.758;6.096;2023-01-10T08:56:29;4.63;;;1.10;;
43042;SDS011;28667;50.758;6.096;2023-01-10T08:58:55;7.35;;;1.48;;
43042;SDS011;28667;50.758;6.096;2023-01-10T09:01:21;9.57;;;1.30;;
43042;SDS011;28667;50.758;6.096;2023-01-10T09:03:47;10.23;;;1.20;;
43042;SDS011;28667;50.758;6.096;2023-01-10T09:06:12;6.20;;;1.00;;
43042;SDS011;28667;50.758;6.096;2023-01-10T09:08:38;8.15;;;1.58;;
43042;SDS011;28667;50.758;6.096;2023-01-10T09:11:04;5.82;;;1.42;;
43042;SDS011;28667;50.758;6.096;2023-01-10T09:13:30;10.52;;;1.58;;
43042;SDS011;28667;50.758;6.096;2023-01-10T09:15:56;6.13;;;1.38;;
43042;SDS011;28667;50.758;6.096;2023-01-10T09:18:22;9.68;;;1.45;;
43042;SDS011;28667;50.758;6.096;2023-01-10T09:20:49;3.15;;;1.35;;
43042;SDS011;28667;50.758;6.096;2023-01-10T09:23:16;6.18;;;1.27;;
43042;SDS011;28667;50.758;6.096;2023-01-10T09:25:44;4.28;;;1.00;;
43042;SDS011;28667;50.758;6.096;2023-01-10T09:28:13;2.85;;;1.05;;
43042;SDS011;28667;50.758;6.096;2023-01-10T09:30:39;7.90;;;1.55;;
43042;SDS011;28667;50.758;6.096;2023-01-10T09:33:05;9.00;;;1.67;;
43042;SDS011;28667;50.758;6.096;2023-01-10T09:35:33;4.80;;;1.60;;
43042;SDS011;28667;50.758;6.096;2023-01-10T09:38:01;9.55;;;1.20;;
43042;SDS011;28667;50.758;6.096;2023-01-10T09:46:09;4.40;;;1.25;;
43042;SDS011;28667;50.758;6.096;2023-01-10T09:54:14;3.63;;;1.25;;
43042;SDS011;28667;50.758;6.096;2023-01-10T09:56:49;7.80;;;1.60;;
43042;SDS011;28667;50.758;6.096;2023-01-10T09:59:17;9.35;;;1.20;;
43042;SDS011;28667;50.758;6.096;2023-01-10T10:01:45;13.10;;;1.52;;
43042;SDS011;28667;50.758;6.096;2023-01-10T10:04:15;19.50;;;1.90;;
43042;SDS011;28667;50.758;6.096;2023-01-10T10:06:51;4.82;;;1.27;;
43042;SDS011;28667;50.758;6.096;2023-01-10T10:09:20;7.38;;;1.70;;
43042;SDS011;28667;50.758;6.096;2023-01-10T10:15:04;11.82;;;1.20;;
43042;SDS011;28667;50.758;6.096;2023-01-10T10:20:44;7.85;;;1.42;;
43042;SDS011;28667;50.758;6.096;2023-01-10T10:26:12;6.45;;;1.13;;
43042;SDS011;28667;50.758;6.096;2023-01-10T10:31:58;5.47;;;0.90;;
43042;SDS011;28667;50.758;6.096;2023-01-10T10:35:03;9.38;;;1.45;;
43042;SDS011;28667;50.758;6.096;2023-01-10T10:37:47;5.07;;;0.70;;
43042;SDS011;28667;50.758;6.096;2023-01-10T10:40:17;6.55;;;1.65;;
43042;SDS011;28667;50.758;6.096;2023-01-10T10:42:46;12.85;;;1.73;;
43042;SDS011;28667;50.758;6.096;2023-01-10T10:45:19;7.75;;;1.17;;
43042;SDS011;28667;50.758;6.096;2023-01-10T10:51:05;17.95;;;2.13;;
43042;SDS011;28667;50.758;6.096;2023-01-10T10:53:53;7.95;;;1.13;;
43042;SDS011;28667;50.758;6.096;2023-01-10T10:56:21;9.90;;;1.20;;
43042;SDS011;28667;50.758;6.096;2023-01-10T10:58:51;4.50;;;1.00;;
43042;SDS011;28667;50.758;6.096;2023-01-10T11:01:19;3.10;;;1.25;;
43042;SDS011;28667;50.758;6.096;2023-01-10T11:03:51;13.02;;;1.33;;
43042;SDS011;28667;50.758;6.096;2023-01-10T11:06:20;8.73;;;1.27;;
43042;SDS011;28667;50.758;6.096;2023-01-10T11:08:48;3.70;;;1.05;;
43042;SDS011;28667;50.758;6.096;2023-01-10T11:11:25;4.13;;;1.15;;
43042;SDS011;28667;50.758;6.096;2023-01-10T11:14:05;8.68;;;1.30;;
43042;SDS011;28667;50.758;6.096;2023-01-10T11:16:39;10.02;;;0.73;;
43042;SDS011;28667;50.758;6.096;2023-01-10T11:26:55;9.15;;;1.48;;
43042;SDS011;28667;50.758;6.096;2023-01-10T11:31:50;2.53;;;1.08;;
43042;SDS011;28667;50.758;6.096;2023-01-10T11:34:29;4.57;;;1.10;;
43042;SDS011;28667;50.758;6.096;2023-01-10T11:37:39;9.45;;;1.58;;
43042;SDS011;28667;50.758;6.096;2023-01-10T11:40:00;6.75;;;1.13;;
43042;SDS011;28667;50.758;6.096;2023-01-10T11:42:43;5.78;;;1.00;;
43042;SDS011;28667;50.758;6.096;2023-01-10T11:47:42;8.00;;;1.10;;
43042;SDS011;28667;50.758;6.096;2023-01-10T11:50:27;5.50;;;1.03;;
43042;SDS011;28667;50.758;6.096;2023-01-10T11:52:57;0.55;;;0.50;;
43042;SDS011;28667;50.758;6.096;2023-01-10T11:55:24;4.50;;;0.90;;
43042;SDS011;28667;50.758;6.096;2023-01-10T11:58:05;5.55;;;0.90;;
43042;SDS011;28667;50.758;6.096;2023-01-10T12:00:40;3.60;;;1.05;;
43042;SDS011;28667;50.758;6.096;2023-01-10T12:03:25;10.25;;;1.15;;
43042;SDS011;28667;50.758;6.096;2023-01-10T12:08:29;7.35;;;0.88;;
43042;SDS011;28667;50.758;6.096;2023-01-10T12:11:06;3.35;;;1.25;;
43042;SDS011;28667;50.758;6.096;2023-01-10T12:13:50;4.78;;;0.75;;
43042;SDS011;28667;50.758;6.096;2023-01-10T12:18:56;2.45;;;0.70;;
43042;SDS011;28667;50.758;6.096;2023-01-10T12:21:33;10.02;;;1.33;;
43042;SDS011;28667;50.758;6.096;2023-01-10T12:27:02;7.07;;;0.80;;
43042;SDS011;28667;50.758;6.096;2023-01-10T12:29:32;3.65;;;1.23;;
43042;SDS011;28667;50.758;6.096;2023-01-10T12:32:01;10.57;;;1.40;;
43042;SDS011;28667;50.758;6.096;2023-01-10T12:34:46;6.93;;;1.13;;
43042;SDS011;28667;50.758;6.096;2023-01-10T12:37:29;6.68;;;1.70;;
43042;SDS011;28667;50.758;6.096;2023-01-10T12:40:08;4.57;;;1.08;;
43042;SDS011;28667;50.758;6.096;2023-01-10T12:43:00;5.18;;;0.90;;
43042;SDS011;28667;50.758;6.096;2023-01-10T12:51:14;9.77;;;0.82;;
43042;SDS011;28667;50.758;6.096;2023-01-10T12:53:49;3.67;;;1.20;;
43042;SDS011;28667;50.758;6.096;2023-01-10T12:56:29;5.70;;;1.80;;
43042;SDS011;28667;50.758;6.096;2023-01-10T12:58:57;5.85;;;1.02;;
43042;SDS011;28667;50.758;6.096;2023-01-10T13:01:34;3.08;;;0.82;;
43042;SDS011;28667;50.758;6.096;2023-01-10T13:04:14;8.35;;;1.42;;
43042;SDS011;28667;50.758;6.096;2023-01-10T13:06:44;7.82;;;1.40;;
43042;SDS011;28667;50.758;6.096;2023-01-10T13:09:17;5.95;;;1.15;;
43042;SDS011;28667;50.758;6.096;2023-01-10T13:14:35;12.82;;;1.05;;
43042;SDS011;28667;50.758;6.096;2023-01-10T13:17:09;8.07;;;1.42;;
43042;SDS011;28667;50.758;6.096;2023-01-10T13:23:10;7.60;;;1.58;;
43042;SDS011;28667;50.758;6.096;2023-01-10T13:25:55;15.45;;;1.48;;
43042;SDS011;28667;50.758;6.096;2023-01-10T13:28:30;3.80;;;1.27;;
43042;SDS011;28667;50.758;6.096;2023-01-10T13:31:07;6.30;;;1.08;;
43042;SDS011;28667;50.758;6.096;2023-01-10T13:34:10;4.95;;;1.35;;
43042;SDS011;28667;50.758;6.096;2023-01-10T13:39:26;5.47;;;1.45;;
43042;SDS011;28667;50.758;6.096;2023-01-10T14:03:38;6.57;;;1.42;;
43042;SDS011;28667;50.758;6.096;2023-01-10T14:06:17;10.95;;;1.27;;
43042;SDS011;28667;50.758;6.096;2023-01-10T14:08:54;7.40;;;0.88;;
43042;SDS011;28667;50.758;6.096;2023-01-10T14:11:22;1.98;;;0.70;;
43042;SDS011;28667;50.758;6.096;2023-01-10T14:13:54;5.43;;;1.30;;
43042;SDS011;28667;50.758;6.096;2023-01-10T14:16:29;6.07;;;0.82;;
43042;SDS011;28667;50.758;6.096;2023-01-10T14:18:58;10.35;;;1.17;;
43042;SDS011;28667;50.758;6.096;2023-01-10T14:21:26;3.97;;;1.00;;
43042;SDS011;28667;50.758;6.096;2023-01-10T14:23:54;2.92;;;0.85;;
43042;SDS011;28667;50.758;6.096;2023-01-10T14:26:25;7.47;;;1.38;;
43042;SDS011;28667;50.758;6.096;2023-01-10T14:28:59;9.70;;;1.02;;
43042;SDS011;28667;50.758;6.096;2023-01-10T14:31:26;8.07;;;1.63;;
43042;SDS011;28667;50.758;6.096;2023-01-10T14:33:52;6.30;;;0.98;;
43042;SDS011;28667;50.758;6.096;2023-01-10T14:36:19;1.23;;;0.50;;
43042;SDS011;28667;50.758;6.096;2023-01-10T14:38:56;7.53;;;1.05;;
43042;SDS011;28667;50.758;6.096;2023-01-10T14:41:31;4.55;;;1.27;;
43042;SDS011;28667;50.758;6.096;2023-01-10T14:44:06;2.50;;;0.82;;
43042;SDS011;28667;50.758;6.096;2023-01-10T14:49:29;7.38;;;0.75;;
43042;SDS011;28667;50.758;6.096;2023-01-10T14:52:10;4.28;;;0.80;;
43042;SDS011;28667;50.758;6.096;2023-01-10T14:54:40;2.90;;;0.73;;
43042;SDS011;28667;50.758;6.096;2023-01-10T14:57:14;3.05;;;0.98;;
43042;SDS011;28667;50.758;6.096;2023-01-10T14:59:45;3.88;;;0.85;;
43042;SDS011;28667;50.758;6.096;2023-01-10T15:02:13;1.73;;;0.75;;
43042;SDS011;28667;50.758;6.096;2023-01-10T15:07:20;3.00;;;1.30;;
43042;SDS011;28667;50.758;6.096;2023-01-10T15:09:49;4.38;;;0.70;;
43042;SDS011;28667;50.758;6.096;2023-01-10T15:12:16;3.88;;;1.20;;
43042;SDS011;28667;50.758;6.096;2023-01-10T15:14:43;2.15;;;0.50;;
43042;SDS011;28667;50.758;6.096;2023-01-10T15:17:10;5.93;;;1.10;;
43042;SDS011;28667;50.758;6.096;2023-01-10T15:19:44;1.92;;;0.57;;
43042;SDS011;28667;50.758;6.096;2023-01-10T15:22:30;7.47;;;1.23;;
43042;SDS011;28667;50.758;6.096;2023-01-10T15:25:03;2.55;;;0.60;;
43042;SDS011;28667;50.758;6.096;2023-01-10T15:27:30;4.90;;;0.80;;
43042;SDS011;28667;50.758;6.096;2023-01-10T15:29:57;4.90;;;0.77;;
43042;SDS011;28667;50.758;6.096;2023-01-10T15:32:27;3.63;;;0.52;;
43042;SDS011;28667;50.758;6.096;2023-01-10T15:34:58;3.57;;;0.67;;
43042;SDS011;28667;50.758;6.096;2023-01-10T15:37:25;3.22;;;0.40;;
43042;SDS011;28667;50.758;6.096;2023-01-10T15:40:00;1.90;;;0.57;;
43042;SDS011;28667;50.758;6.096;2023-01-10T15:42:28;2.15;;;0.65;;
43042;SDS011;28667;50.758;6.096;2023-01-10T15:44:55;0.90;;;0.50;;
43042;SDS011;28667;50.758;6.096;2023-01-10T15:55:34;1.48;;;0.63;;
43042;SDS011;28667;50.758;6.096;2023-01-10T15:58:15;2.22;;;0.63;;
43042;SDS011;28667;50.758;6.096;2023-01-10T16:00:53;0.10;;;0.10;;
43042;SDS011;28667;50.758;6.096;2023-01-10T16:03:24;0.22;;;0.20;;
43042;SDS011;28667;50.758;6.096;2023-01-10T16:06:01;0.47;;;0.20;;
43042;SDS011;28667;50.758;6.096;2023-01-10T16:08:30;5.82;;;0.32;;
43042;SDS011;28667;50.758;6.096;2023-01-10T16:11:00;0.55;;;0.30;;
43042;SDS011;28667;50.758;6.096;2023-01-10T16:13:32;1.75;;;0.35;;
43042;SDS011;28667;50.758;6.096;2023-01-10T16:16:00;0.22;;;0.20;;
43042;SDS011;28667;50.758;6.096;2023-01-10T16:18:29;0.47;;;0.30;;
43042;SDS011;28667;50.758;6.096;2023-01-10T16:20:56;0.80;;;0.20;;
43042;SDS011;28667;50.758;6.096;2023-01-10T16:23:26;0.20;;;0.20;;
43042;SDS011;28667;50.758;6.096;2023-01-10T16:25:57;1.98;;;0.40;;
43042;SDS011;28667;50.758;6.096;2023-01-10T16:28:25;7.70;;;0.22;;
43042;SDS011;28667;50.758;6.096;2023-01-10T16:30:55;0.50;;;0.30;;
43042;SDS011;28667;50.758;6.096;2023-01-10T16:33:21;0.10;;;0.10;;
43042;SDS011;28667;50.758;6.096;2023-01-10T16:35:51;0.40;;;0.20;;
43042;SDS011;28667;50.758;6.096;2023-01-10T16:38:19;0.40;;;0.10;;
43042;SDS011;28667;50.758;6.096;2023-01-10T16:40:46;0.52;;;0.20;;
43042;SDS011;28667;50.758;6.096;2023-01-10T16:43:16;2.20;;;0.20;;
43042;SDS011;28667;50.758;6.096;2023-01-10T16:45:50;0.35;;;0.32;;
43042;SDS011;28667;50.758;6.096;2023-01-10T16:48:18;0.40;;;0.32;;
43042;SDS011;28667;50.758;6.096;2023-01-10T16:50:45;1.45;;;0.13;;
43042;SDS011;28667;50.758;6.096;2023-01-10T16:53:15;0.20;;;0.20;;
43042;SDS011;28667;50.758;6.096;2023-01-10T16:55:43;0.22;;;0.10;;
43042;SDS011;28667;50.758;6.096;2023-01-10T16:58:13;1.15;;;0.20;;
43042;SDS011;28667;50.758;6.096;2023-01-10T17:00:40;3.70;;;0.40;;
43042;SDS011;28667;50.758;6.096;2023-01-10T17:03:10;0.10;;;0.10;;
43042;SDS011;28667;50.758;6.096;2023-01-10T17:05:41;0.80;;;0.52;;
43042;SDS011;28667;50.758;6.096;2023-01-10T17:08:17;0.10;;;0.08;;
43042;SDS011;28667;50.758;6.096;2023-01-10T17:10:46;1.65;;;0.20;;
43042;SDS011;28667;50.758;6.096;2023-01-10T17:13:21;0.00;;;0.00;;
43042;SDS011;28667;50.758;6.096;2023-01-10T17:15:49;0.75;;;0.10;;
43042;SDS011;28667;50.758;6.096;2023-01-10T17:18:15;1.27;;;0.20;;